createdAt,value
2023-05-02T00:00:40.359Z,13.40
2023-05-02T00:05:42.180Z,13.20
2023-05-02T00:10:43.862Z,13.10
2023-05-02T00:15:46.047Z,13.00
2023-05-02T00:20:47.712Z,12.90
2023-05-02T00:25:49.449Z,12.80
2023-05-02T00:30:51.828Z,12.70
2023-05-02T00:35:53.520Z,12.50
2023-05-02T00:40:55.298Z,12.40
2023-05-02T00:45:57.185Z,12.30
2023-05-02T00:50:59.319Z,12.20
2023-05-02T00:56:02.444Z,12.10
2023-05-02T01:01:20.896Z,12.10
2023-05-02T01:06:53.352Z,12.00
2023-05-02T01:12:05.449Z,11.90
2023-05-02T01:17:12.125Z,11.80
2023-05-02T01:22:16.226Z,11.80
2023-05-02T01:27:43.419Z,11.80
2023-05-02T01:32:47.538Z,11.80
2023-05-02T01:37:50.022Z,11.90
2023-05-02T01:42:53.773Z,11.90
2023-05-02T01:47:56.133Z,11.90
2023-05-02T01:52:59.111Z,12.00
2023-05-02T01:58:01.719Z,11.90
2023-05-02T02:03:06.433Z,11.80
2023-05-02T02:08:08.678Z,11.80
2023-05-02T02:13:30.322Z,11.80
2023-05-02T02:18:37.322Z,11.90
2023-05-02T02:23:43.359Z,12.00
2023-05-02T02:28:45.874Z,12.00
2023-05-02T02:33:48.195Z,12.00
2023-05-02T02:39:15.825Z,12.00
2023-05-02T02:44:31.705Z,12.10
2023-05-02T02:49:49.513Z,12.10
2023-05-02T02:55:02.595Z,12.00
2023-05-02T03:00:20.876Z,12.00
2023-05-02T03:05:23.674Z,12.10
2023-05-02T03:10:25.474Z,12.00
2023-05-02T03:15:45.978Z,12.10
2023-05-02T03:20:47.688Z,12.00
2023-05-02T03:25:49.377Z,12.10
2023-05-02T03:30:51.091Z,12.10
2023-05-02T03:35:52.762Z,12.10
2023-05-02T03:40:58.042Z,12.10
2023-05-02T03:46:08.250Z,12.10
2023-05-02T03:51:10.026Z,12.10
2023-05-02T03:56:11.804Z,12.10
2023-05-02T04:01:17.346Z,12.10
2023-05-02T04:06:19.105Z,12.10
2023-05-02T04:11:20.857Z,12.20
2023-05-02T04:16:22.985Z,12.20
2023-05-02T04:21:24.710Z,12.20
2023-05-02T04:26:26.818Z,12.30
2023-05-02T04:31:28.648Z,12.30
2023-05-02T04:36:30.368Z,12.30
2023-05-02T04:41:32.076Z,12.30
2023-05-02T04:46:33.846Z,12.40
2023-05-02T04:51:35.659Z,12.40
2023-05-02T04:56:37.317Z,12.40
2023-05-02T05:01:39.127Z,12.50
2023-05-02T05:06:41.019Z,12.60
2023-05-02T05:11:46.915Z,12.60
2023-05-02T05:16:48.743Z,12.60
2023-05-02T05:21:50.901Z,12.70
2023-05-02T05:26:52.585Z,12.80
2023-05-02T05:31:54.314Z,13.00
2023-05-02T05:36:56.081Z,13.10
2023-05-02T05:41:58.423Z,13.00
2023-05-02T05:47:00.178Z,13.00
2023-05-02T05:52:02.739Z,13.10
2023-05-02T05:57:04.420Z,13.20
2023-05-02T06:02:06.808Z,13.20
2023-05-02T06:07:08.576Z,13.10
2023-05-02T06:12:10.250Z,13.10
2023-05-02T06:17:11.934Z,13.00
2023-05-02T06:22:14.150Z,13.10
2023-05-02T06:27:16.467Z,13.20
2023-05-02T06:32:18.657Z,13.30
2023-05-02T06:37:20.688Z,13.40
2023-05-02T06:42:22.419Z,13.20
2023-05-02T06:47:24.455Z,13.30
2023-05-02T06:52:26.339Z,13.30
2023-05-02T06:57:28.010Z,13.60
2023-05-02T07:02:29.696Z,13.70
2023-05-02T07:07:31.538Z,13.90
2023-05-02T07:12:33.204Z,13.50
2023-05-02T07:17:35.071Z,13.50
2023-05-02T07:22:36.818Z,13.80
2023-05-02T07:27:39.155Z,14.00
2023-05-02T07:32:41.020Z,14.00
2023-05-02T07:37:42.727Z,14.10
2023-05-02T07:42:44.560Z,14.40
2023-05-02T07:47:47.008Z,14.00
2023-05-02T07:52:48.779Z,14.30
2023-05-02T07:57:50.561Z,14.00
2023-05-02T08:02:52.389Z,13.90
2023-05-02T08:07:54.181Z,14.40
2023-05-02T08:12:56.082Z,14.20
2023-05-02T08:17:57.867Z,13.10
2023-05-02T08:23:00.204Z,12.40
2023-05-02T08:28:02.194Z,12.00
2023-05-02T08:33:04.004Z,12.20
2023-05-02T08:38:06.346Z,12.20
2023-05-02T08:43:08.169Z,12.00
2023-05-02T08:48:13.697Z,12.10
2023-05-02T08:53:17.277Z,12.30
2023-05-02T08:58:19.027Z,13.10
2023-05-02T09:03:35.217Z,13.30
2023-05-02T09:08:37.475Z,13.50
2023-05-02T09:13:44.699Z,13.40
2023-05-02T09:18:57.392Z,13.80
2023-05-02T09:23:59.853Z,14.90
2023-05-02T09:29:04.043Z,15.60
2023-05-02T09:34:10.659Z,14.90
2023-05-02T09:39:15.016Z,15.30
2023-05-02T09:44:22.219Z,14.50
2023-05-02T09:49:48.597Z,13.90
2023-05-02T09:54:56.199Z,13.80
2023-05-02T09:59:58.884Z,13.70
2023-05-02T10:05:01.925Z,14.20
2023-05-02T10:10:04.245Z,14.40
2023-05-02T10:15:09.638Z,14.70
2023-05-02T10:20:16.474Z,15.40
2023-05-02T10:25:19.028Z,15.90
2023-05-02T10:30:20.986Z,16.10
2023-05-02T10:35:25.504Z,16.70
2023-05-02T10:40:27.515Z,16.60
2023-05-02T10:45:37.682Z,16.70
2023-05-02T10:50:51.289Z,17.00
2023-05-02T10:56:21.127Z,16.50
2023-05-02T11:01:29.128Z,16.10
2023-05-02T11:06:36.191Z,16.10
2023-05-02T11:11:42.250Z,16.70
2023-05-02T11:17:04.187Z,16.20
2023-05-02T11:22:21.713Z,15.90
2023-05-02T11:27:33.494Z,16.30
2023-05-02T11:32:48.656Z,17.00
2023-05-02T11:37:58.215Z,16.80
2023-05-02T11:43:00.998Z,14.40
2023-05-02T11:48:07.222Z,13.70
2023-05-02T11:53:13.699Z,13.70
2023-05-02T11:58:17.899Z,13.80
2023-05-02T12:03:33.725Z,13.50
2023-05-02T12:08:35.546Z,12.90
2023-05-02T12:13:48.398Z,12.60
2023-05-02T12:18:50.496Z,12.70
2023-05-02T12:23:53.043Z,12.80
2023-05-02T12:28:55.780Z,13.20
2023-05-02T12:33:59.363Z,13.30
2023-05-02T12:39:03.805Z,13.50
2023-05-02T12:44:07.232Z,13.90
2023-05-02T12:49:11.865Z,13.60
2023-05-02T12:54:21.147Z,13.70
2023-05-02T12:59:30.510Z,14.20
2023-05-02T13:04:41.071Z,14.60
2023-05-02T13:09:42.830Z,14.10
2023-05-02T13:14:45.141Z,14.00
2023-05-02T13:19:57.841Z,13.70
2023-05-02T13:25:06.516Z,14.30
2023-05-02T13:30:09.955Z,14.00
2023-05-02T13:35:14.126Z,13.30
2023-05-02T13:40:16.128Z,13.30
2023-05-02T13:45:18.097Z,13.10
2023-05-02T13:50:19.964Z,13.10
2023-05-02T13:55:21.857Z,13.20
2023-05-02T14:00:23.736Z,13.20
2023-05-02T14:05:25.736Z,13.20
2023-05-02T14:10:27.605Z,13.20
2023-05-02T14:15:29.423Z,13.10
2023-05-02T14:20:31.273Z,13.40
2023-05-02T14:25:34.214Z,13.30
2023-05-02T14:30:36.002Z,13.80
2023-05-02T14:35:37.700Z,14.20
2023-05-02T14:40:39.370Z,15.10
2023-05-02T14:45:41.474Z,15.20
2023-05-02T14:50:43.974Z,14.70
2023-05-02T14:55:45.928Z,14.20
2023-05-02T15:00:48.114Z,13.90
2023-05-02T15:05:49.853Z,13.90
2023-05-02T15:10:51.516Z,14.00
2023-05-02T15:15:54.217Z,14.20
2023-05-02T15:20:55.941Z,14.30
2023-05-02T15:25:57.592Z,13.90
2023-05-02T15:30:59.264Z,14.10
2023-05-02T15:36:00.900Z,13.50
2023-05-02T15:41:02.575Z,13.80
2023-05-02T15:46:04.311Z,13.70
2023-05-02T15:51:06.498Z,13.50
2023-05-02T15:56:12.138Z,13.70
2023-05-02T16:01:13.821Z,13.90
2023-05-02T16:06:17.457Z,13.90
2023-05-02T16:11:19.190Z,13.50
2023-05-02T16:16:21.046Z,13.70
2023-05-02T16:21:22.752Z,13.30
2023-05-02T16:26:24.554Z,13.20
2023-05-02T16:31:26.793Z,13.20
2023-05-02T16:36:29.004Z,13.00
2023-05-02T16:41:30.832Z,13.10
2023-05-02T16:46:32.844Z,13.00
2023-05-02T16:51:34.595Z,13.10
2023-05-02T16:56:37.460Z,12.90
2023-05-02T17:01:39.204Z,12.50
2023-05-02T17:06:41.250Z,12.80
2023-05-02T17:11:43.193Z,12.80
2023-05-02T17:16:44.952Z,12.40
2023-05-02T17:21:46.840Z,12.50
2023-05-02T17:26:49.008Z,12.40
2023-05-02T17:31:51.130Z,12.60
2023-05-02T17:36:52.848Z,12.60
2023-05-02T17:41:54.526Z,12.50
2023-05-02T17:46:56.671Z,12.20
2023-05-02T17:51:58.339Z,12.20
2023-05-02T17:57:00.031Z,12.30
2023-05-02T18:02:01.827Z,12.30
2023-05-02T18:07:05.709Z,12.10
2023-05-02T18:12:07.925Z,12.10
2023-05-02T18:17:10.056Z,12.10
2023-05-02T18:22:12.036Z,12.00
2023-05-02T18:27:13.761Z,12.10
2023-05-02T18:32:15.518Z,12.00
2023-05-02T18:37:17.217Z,11.90
2023-05-02T18:42:18.940Z,11.90
2023-05-02T18:47:21.393Z,11.90
2023-05-02T18:52:23.101Z,11.90
2023-05-02T18:57:25.334Z,11.70
2023-05-02T19:02:27.557Z,11.50
2023-05-02T19:07:29.337Z,11.30
2023-05-02T19:12:31.279Z,11.10
2023-05-02T19:17:33.311Z,10.90
2023-05-02T19:22:37.041Z,10.80
2023-05-02T19:27:43.821Z,10.70
2023-05-02T19:32:45.584Z,10.60
2023-05-02T19:37:47.294Z,10.50
2023-05-02T19:42:48.956Z,10.30
2023-05-02T19:47:50.821Z,10.30
2023-05-02T19:52:52.544Z,10.10
2023-05-02T19:57:54.214Z,10.10
2023-05-02T20:02:56.517Z,10.10
2023-05-02T20:07:58.951Z,10.00
2023-05-02T20:13:00.670Z,9.90
2023-05-02T20:18:03.184Z,9.80
2023-05-02T20:23:05.126Z,9.70
2023-05-02T20:28:06.905Z,9.70
2023-05-02T20:33:15.690Z,9.60
2023-05-02T20:38:20.601Z,9.50
2023-05-02T20:43:23.071Z,9.40
2023-05-02T20:48:25.043Z,9.40
2023-05-02T20:53:26.854Z,9.40
2023-05-02T20:58:28.622Z,9.20
2023-05-02T21:03:30.428Z,9.10
2023-05-02T21:08:32.160Z,9.00
2023-05-02T21:13:33.967Z,8.90
2023-05-02T21:18:35.733Z,8.90
2023-05-02T21:23:37.540Z,8.90
2023-05-02T21:28:39.479Z,8.90
2023-05-02T21:33:44.086Z,8.80
2023-05-02T21:38:45.849Z,8.80
2023-05-02T21:43:47.638Z,8.70
2023-05-02T21:48:49.479Z,8.60
2023-05-02T21:53:53.610Z,8.50
2023-05-02T21:58:55.349Z,8.50
2023-05-02T22:03:58.054Z,8.40
2023-05-02T22:08:59.913Z,8.30
2023-05-02T22:14:01.735Z,8.40
2023-05-02T22:19:07.498Z,8.40
2023-05-02T22:24:09.230Z,8.40
2023-05-02T22:29:11.072Z,8.30
2023-05-02T22:34:13.072Z,8.30
2023-05-02T22:39:15.771Z,8.40
2023-05-02T22:44:17.598Z,8.40
2023-05-02T22:49:19.772Z,8.40
2023-05-02T22:54:21.466Z,8.40
2023-05-02T22:59:23.269Z,8.20
2023-05-02T23:04:25.048Z,8.20
2023-05-02T23:09:26.775Z,8.10
2023-05-02T23:14:28.463Z,8.10
2023-05-02T23:19:30.168Z,8.00
2023-05-02T23:24:32.042Z,8.00
2023-05-02T23:29:33.768Z,7.90
2023-05-02T23:34:38.607Z,7.90
2023-05-02T23:39:40.767Z,7.80
2023-05-02T23:44:43.687Z,7.80
2023-05-02T23:49:45.405Z,7.70
2023-05-02T23:54:47.085Z,7.80
2023-05-02T23:59:52.802Z,7.80
